Time;durP1;ratioP1;P1;durP2;ratioP2;P2;SDS_P1;SDS_P2;PMS_P1;PMS_P2;Temp;Humidity;BMP_temperature;BMP_pressure;BME280_temperature;BME280_humidity;BME280_pressure;Samples;Min_cycle;Max_cycle;Signal;HPM_P1;HPM_P2
2022/12/04 00:01:20;;;;;;;0.20;0.20;;;;;;;9.84;58.99;96019.31;4950888;28;20235;-66
2022/12/04 00:03:51;;;;;;;0.20;0.20;;;;;;;10.07;58.55;96022.03;4951082;28;20679;-64
2022/12/04 00:06:19;;;;;;;0.57;0.57;;;;;;;9.94;59.21;96024.84;4951759;28;20215;-64
2022/12/04 00:08:48;;;;;;;0.37;0.37;;;;;;;9.84;59.18;96029.81;4953326;28;20478;-64
2022/12/04 00:11:19;;;;;;;0.23;0.23;;;;;;;9.60;59.56;96026.31;4939219;28;20515;-65
2022/12/04 00:13:46;;;;;;;0.00;0.00;;;;;;;9.60;60.03;96034.16;4935734;29;20520;-63
2022/12/04 00:16:16;;;;;;;0.63;0.57;;;;;;;9.78;59.63;96033.31;4935759;29;20505;-62
2022/12/04 00:18:44;;;;;;;0.20;0.20;;;;;;;9.97;58.88;96033.03;4936149;28;20511;-65
2022/12/04 00:21:12;;;;;;;0.40;0.40;;;;;;;9.80;59.63;96028.63;4949417;29;20543;-64
2022/12/04 00:23:40;;;;;;;0.00;0.00;;;;;;;9.92;58.97;96042.59;4948817;28;20583;-62
2022/12/04 00:26:10;;;;;;;0.00;0.00;;;;;;;9.72;59.35;96042.06;4948385;29;20927;-64
2022/12/04 00:28:37;;;;;;;0.00;0.00;;;;;;;9.63;59.57;96040.78;4940774;28;20482;-63
2022/12/04 00:31:16;;;;;;;0.07;0.07;;;;;;;9.74;59.16;96040.03;4954725;29;20502;-61
2022/12/04 00:33:43;;;;;;;0.40;0.40;;;;;;;9.65;59.54;96043.97;4940982;28;20506;-64
2022/12/04 00:36:12;;;;;;;1.90;0.73;;;;;;;9.72;58.86;96040.25;4954481;28;20522;-64
2022/12/04 00:38:41;;;;;;;0.10;0.10;;;;;;;9.50;59.47;96033.88;4954533;29;20439;-63
2022/12/04 00:41:10;;;;;;;1.67;1.30;;;;;;;9.84;59.10;96037.66;4944535;28;20508;-63
2022/12/04 00:43:38;;;;;;;0.03;0.03;;;;;;;9.90;58.53;96034.16;4948667;29;20549;-65
2022/12/04 00:46:05;;;;;;;0.60;0.60;;;;;;;9.92;58.23;96034.72;4942385;29;20447;-65
2022/12/04 00:48:32;;;;;;;0.00;0.00;;;;;;;10.09;57.83;96039.13;4939654;28;20480;-65
2022/12/04 00:51:09;;;;;;;0.03;0.03;;;;;;;10.15;57.98;96040.06;4938735;28;20879;-62
2022/12/04 00:53:37;;;;;;;2.00;1.20;;;;;;;9.89;58.02;96040.44;4935223;29;20521;-64
2022/12/04 00:56:10;;;;;;;0.00;0.00;;;;;;;9.84;58.39;96045.50;4948308;28;20487;-62
2022/12/04 00:58:37;;;;;;;2.55;1.65;;;;;;;9.76;58.30;96043.22;4944970;29;20610;-63
2022/12/04 01:01:08;;;;;;;0.20;0.20;;;;;;;9.71;58.15;96041.25;4954303;28;20196;-64
2022/12/04 01:03:36;;;;;;;0.00;0.00;;;;;;;9.72;58.14;96039.44;4954511;28;20478;-63
2022/12/04 01:06:03;;;;;;;0.00;0.00;;;;;;;9.49;58.98;96041.97;4954059;28;20462;-64
2022/12/04 01:08:31;;;;;;;0.07;0.07;;;;;;;9.48;59.05;96041.16;4954267;28;20538;-62
2022/12/04 01:10:58;;;;;;;0.00;0.00;;;;;;;9.56;58.76;96042.69;4954003;28;20503;-65
2022/12/04 01:13:25;;;;;;;0.57;0.57;;;;;;;9.56;58.45;96043.44;4954321;28;20450;-63
2022/12/04 01:15:52;;;;;;;0.00;0.00;;;;;;;9.38;58.90;96040.88;4953907;28;20451;-63
2022/12/04 01:18:20;;;;;;;0.88;0.63;;;;;;;9.46;58.77;96032.72;4935752;29;20280;-60
2022/12/04 01:20:49;;;;;;;0.75;0.55;;;;;;;9.37;59.43;96044.50;4944979;28;20575;-63
2022/12/04 01:23:16;;;;;;;0.23;0.20;;;;;;;9.60;58.71;96033.38;4940226;28;20196;-63
2022/12/04 01:25:51;;;;;;;0.00;0.00;;;;;;;9.65;58.82;96036.13;4944315;28;21350;-62
2022/12/04 01:28:18;;;;;;;0.10;0.10;;;;;;;9.45;58.52;96031.13;4950781;28;20217;-64
2022/12/04 01:31:06;;;;;;;0.00;0.00;;;;;;;9.20;59.53;96036.47;4953616;28;20204;-62
2022/12/04 01:33:34;;;;;;;0.00;0.00;;;;;;;9.19;59.36;96037.50;4939440;28;20191;-66
2022/12/04 01:36:03;;;;;;;0.30;0.28;;;;;;;9.01;60.08;96040.06;4953027;28;20528;-61
2022/12/04 01:38:30;;;;;;;0.10;0.10;;;;;;;9.09;59.84;96031.97;4937374;28;20228;-63
2022/12/04 01:40:57;;;;;;;0.00;0.00;;;;;;;8.93;60.34;96032.53;4942492;28;20200;-63
2022/12/04 01:43:26;;;;;;;0.75;0.63;;;;;;;9.14;60.04;96029.47;4952179;28;20511;-64
2022/12/04 01:45:55;;;;;;;0.13;0.13;;;;;;;9.23;59.16;96031.81;4940980;29;20227;-64
2022/12/04 01:48:25;;;;;;;0.10;0.10;;;;;;;9.13;59.37;96037.53;4940183;28;20225;-64
2022/12/04 01:51:05;;;;;;;0.00;0.00;;;;;;;9.24;59.66;96028.97;4937521;29;20295;-61
2022/12/04 01:53:37;;;;;;;0.10;0.10;;;;;;;9.04;60.06;96033.63;4944417;28;20451;-62
2022/12/04 01:56:05;;;;;;;0.28;0.15;;;;;;;9.19;59.71;96027.03;4949372;28;20248;-62
2022/12/04 01:58:40;;;;;;;0.20;0.20;;;;;;;9.06;60.01;96027.16;4943227;29;20251;-63
2022/12/04 02:01:07;;;;;;;0.32;0.32;;;;;;;8.86;60.46;96031.81;4953220;28;20207;-61
2022/12/04 02:03:36;;;;;;;0.00;0.00;;;;;;;9.09;59.79;96026.72;4953182;28;20679;-62
2022/12/04 02:06:04;;;;;;;0.10;0.10;;;;;;;9.06;59.75;96027.16;4939121;28;20503;-62
2022/12/04 02:08:34;;;;;;;0.05;0.05;;;;;;;9.21;59.12;96017.13;4953015;28;20290;-64
2022/12/04 02:11:19;;;;;;;0.77;0.20;;;;;;;9.10;59.78;96022.31;4953046;28;20208;-63
2022/12/04 02:14:04;;;;;;;7.32;1.95;;;;;;;9.13;59.48;96011.41;4944372;28;20456;-63
2022/12/04 02:16:48;;;;;;;0.00;0.00;;;;;;;9.21;59.23;96016.34;4946946;28;20631;-64
2022/12/04 02:19:40;;;;;;;0.00;0.00;;;;;;;9.06;59.96;96016.72;4945960;28;20210;-61
2022/12/04 02:22:21;;;;;;;0.00;0.00;;;;;;;8.96;60.35;96016.41;4934191;29;20444;-64
2022/12/04 02:25:14;;;;;;;0.00;0.00;;;;;;;9.07;59.97;96017.50;4933792;29;20486;-63
2022/12/04 02:27:41;;;;;;;0.00;0.00;;;;;;;9.03;60.27;96014.50;4948286;28;20283;-63
2022/12/04 02:30:10;;;;;;;0.00;0.00;;;;;;;9.29;59.31;96015.25;4952116;28;20699;-62
2022/12/04 02:33:06;;;;;;;0.00;0.00;;;;;;;9.30;59.09;96012.41;4942651;28;20200;-63
2022/12/04 02:35:40;;;;;;;0.35;0.30;;;;;;;9.22;59.13;96015.31;4939322;29;20192;-62
2022/12/04 02:38:28;;;;;;;0.37;0.37;;;;;;;9.29;59.14;96010.78;4939957;28;20196;-62
2022/12/04 02:40:59;;;;;;;0.00;0.00;;;;;;;9.10;59.75;96007.38;4933338;29;20448;-64
2022/12/04 02:43:31;;;;;;;0.00;0.00;;;;;;;9.29;58.93;96004.78;4933433;28;20201;-60
2022/12/04 02:46:05;;;;;;;0.10;0.10;;;;;;;9.27;59.25;96007.59;4941164;29;20207;-61
2022/12/04 02:48:35;;;;;;;0.00;0.00;;;;;;;9.17;59.81;96008.13;4938809;28;20571;-62
2022/12/04 02:51:05;;;;;;;0.20;0.20;;;;;;;9.17;59.65;95996.88;4945150;28;20251;-64
2022/12/04 02:53:37;;;;;;;0.50;0.50;;;;;;;9.16;59.76;95998.69;4933383;29;20559;-63
2022/12/04 02:56:12;;;;;;;0.00;0.00;;;;;;;9.23;59.58;96008.28;4936478;29;20444;-65
2022/12/04 02:58:48;;;;;;;0.00;0.00;;;;;;;9.40;59.22;96002.22;4941786;28;20444;-64
2022/12/04 03:01:19;;;;;;;1.13;0.90;;;;;;;9.31;59.55;96011.38;4932779;29;20208;-63
2022/12/04 03:04:14;;;;;;;0.20;0.20;;;;;;;9.23;59.59;96015.09;4932852;29;20468;-61
2022/12/04 03:06:45;;;;;;;0.35;0.35;;;;;;;9.22;59.56;96015.31;4933030;28;20206;-62
2022/12/04 03:09:18;;;;;;;0.00;0.00;;;;;;;9.29;59.55;96017.88;4933042;29;20232;-62
2022/12/04 03:11:53;;;;;;;0.00;0.00;;;;;;;9.07;59.27;96012.25;4939409;29;20202;-63
2022/12/04 03:14:46;;;;;;;0.00;0.00;;;;;;;9.21;59.49;95998.81;4938718;28;20374;-61
2022/12/04 03:17:26;;;;;;;0.00;0.00;;;;;;;9.48;58.63;95998.50;4938562;28;20469;-64
2022/12/04 03:19:58;;;;;;;0.43;0.43;;;;;;;9.50;58.66;95999.06;4932457;29;20196;-64
2022/12/04 03:22:25;;;;;;;0.00;0.00;;;;;;;9.47;58.33;95996.91;4942453;29;20962;-63
2022/12/04 03:24:55;;;;;;;0.37;0.37;;;;;;;9.44;58.59;95997.34;4951752;28;20227;-63
2022/12/04 03:27:31;;;;;;;0.03;0.03;;;;;;;9.52;58.39;96002.28;4943046;28;20448;-64
2022/12/04 03:30:19;;;;;;;0.10;0.10;;;;;;;9.07;59.33;95997.38;4932601;29;20206;-62
2022/12/04 03:33:34;;;;;;;0.40;0.40;;;;;;;9.18;59.26;95998.47;4932978;29;20196;-65
2022/12/04 03:36:15;;;;;;;0.00;0.00;;;;;;;9.35;58.76;95998.66;4957730;28;20451;-63
2022/12/04 03:38:47;;;;;;;0.20;0.20;;;;;;;9.00;59.59;96001.88;4947371;28;20691;-62
2022/12/04 03:41:53;;;;;;;0.00;0.00;;;;;;;9.25;58.75;95998.41;4943413;28;20482;-64
2022/12/04 03:44:43;;;;;;;0.08;0.08;;;;;;;9.26;59.49;96005.22;4958112;28;20334;-65
2022/12/04 03:47:19;;;;;;;1.75;1.65;;;;;;;9.23;59.14;96005.66;4933855;28;20240;-64
2022/12/04 03:49:55;;;;;;;0.13;0.13;;;;;;;9.20;59.19;96007.69;4932366;29;20212;-61
2022/12/04 03:52:32;;;;;;;0.00;0.00;;;;;;;9.23;59.04;95996.78;4935682;29;20205;-62
2022/12/04 03:55:17;;;;;;;0.10;0.10;;;;;;;9.30;59.14;95998.53;4940344;29;20203;-63
2022/12/04 03:57:46;;;;;;;0.00;0.00;;;;;;;9.13;59.15;95996.50;4937493;28;20294;-63
2022/12/04 04:00:18;;;;;;;0.15;0.15;;;;;;;9.09;59.01;95995.34;4952368;28;20191;-62
2022/12/04 04:02:49;;;;;;;0.30;0.30;;;;;;;9.30;58.79;96001.13;4935317;28;20217;-61
2022/12/04 04:05:18;;;;;;;0.20;0.20;;;;;;;9.33;58.31;95987.63;4940241;29;20574;-64
2022/12/04 04:07:49;;;;;;;0.55;0.50;;;;;;;9.28;58.97;95997.94;4951045;28;20211;-62
2022/12/04 04:10:24;;;;;;;0.00;0.00;;;;;;;9.23;59.22;95996.78;4951321;28;20207;-65
2022/12/04 04:24:25;;;;;;;0.10;0.10;;;;;;;9.14;59.40;96003.31;4943430;29;20315;-65
2022/12/04 04:26:56;;;;;;;0.10;0.10;;;;;;;9.04;59.47;96008.28;4946218;28;20646;-65
2022/12/04 04:29:24;;;;;;;0.00;0.00;;;;;;;9.08;59.34;96001.59;4943664;28;20200;-64
2022/12/04 04:32:42;;;;;;;0.00;0.00;;;;;;;9.28;58.37;95997.94;4947343;28;20472;-64
2022/12/04 04:35:20;;;;;;;0.40;0.40;;;;;;;9.05;58.82;96009.88;4970173;28;20207;-63
2022/12/04 04:38:02;;;;;;;0.10;0.10;;;;;;;9.08;58.93;96008.66;4987375;28;20749;-61
2022/12/04 04:40:40;;;;;;;0.00;0.00;;;;;;;9.25;58.73;96004.44;4950656;28;20196;-60
2022/12/04 04:43:34;;;;;;;0.00;0.00;;;;;;;9.16;59.05;96005.72;4939368;28;20204;-60
2022/12/04 04:46:16;;;;;;;0.83;0.53;;;;;;;9.15;59.03;95999.72;4929327;29;20236;-60
2022/12/04 04:48:48;;;;;;;0.35;0.35;;;;;;;9.08;58.81;96009.47;4947375;28;20471;-61
2022/12/04 04:51:16;;;;;;;0.13;0.10;;;;;;;9.16;58.24;96011.75;4942134;28;20205;-65
2022/12/04 04:53:50;;;;;;;0.00;0.00;;;;;;;8.96;59.39;96011.19;4943732;28;20235;-65
2022/12/04 04:56:19;;;;;;;0.00;0.00;;;;;;;8.99;59.43;96013.38;4949519;28;20251;-63
2022/12/04 04:58:46;;;;;;;0.32;0.32;;;;;;;8.87;59.65;96012.50;4946925;29;20215;-63
2022/12/04 05:01:16;;;;;;;0.00;0.00;;;;;;;8.66;60.25;96015.53;4937100;28;20197;-64
2022/12/04 05:03:43;;;;;;;0.40;0.40;;;;;;;8.62;60.85;96019.59;4935174;29;20204;-63
2022/12/04 05:06:10;;;;;;;1.08;0.68;;;;;;;8.69;60.54;96022.94;4948532;29;20227;-62
2022/12/04 05:08:38;;;;;;;0.47;0.25;;;;;;;8.89;60.16;96026.13;4944239;28;20528;-64
2022/12/04 05:11:05;;;;;;;0.08;0.05;;;;;;;8.89;59.92;96015.69;4939935;28;20245;-64
2022/12/04 05:13:32;;;;;;;0.20;0.20;;;;;;;8.84;59.78;96023.38;4935317;29;20193;-66
2022/12/04 05:16:05;;;;;;;0.17;0.17;;;;;;;8.69;60.71;96030.75;4934990;29;20232;-63
2022/12/04 05:18:33;;;;;;;0.15;0.15;;;;;;;8.78;60.47;96032.09;4940552;29;20192;-63
2022/12/04 05:21:08;;;;;;;0.00;0.00;;;;;;;8.53;60.44;96039.16;4954041;28;20582;-64
2022/12/04 05:23:35;;;;;;;0.13;0.13;;;;;;;8.54;60.38;96032.13;4940395;28;20286;-61
2022/12/04 05:26:04;;;;;;;0.00;0.00;;;;;;;8.55;60.33;96039.75;4953982;28;20226;-64
2022/12/04 05:28:31;;;;;;;0.00;0.00;;;;;;;8.69;60.62;96043.81;4953479;28;20291;-65
2022/12/04 05:31:01;;;;;;;0.38;0.30;;;;;;;8.95;59.62;96040.16;4953917;29;20746;-64
2022/12/04 05:33:29;;;;;;;0.03;0.03;;;;;;;8.63;60.43;96031.63;4940171;28;20211;-65
2022/12/04 05:36:01;;;;;;;0.70;0.47;;;;;;;8.84;59.97;96035.66;4944490;28;20193;-64
2022/12/04 05:38:28;;;;;;;0.28;0.28;;;;;;;8.91;59.58;96041.59;4936569;29;20220;-63
2022/12/04 05:40:57;;;;;;;0.33;0.27;;;;;;;8.71;60.10;96044.41;4953470;28;20279;-63
2022/12/04 05:43:24;;;;;;;0.32;0.32;;;;;;;8.55;60.69;96044.97;4939937;28;20451;-63
2022/12/04 05:45:51;;;;;;;0.00;0.00;;;;;;;8.40;60.50;96015.75;4946432;28;20354;-64
2022/12/04 05:48:18;;;;;;;0.03;0.03;;;;;;;8.63;60.29;96036.06;4933953;29;20287;-62
2022/12/04 05:50:45;;;;;;;2.63;1.10;;;;;;;8.63;60.26;96052.50;4951661;29;20208;-64
2022/12/04 05:53:12;;;;;;;2.75;0.82;;;;;;;8.65;60.32;96050.50;4934247;29;20235;-65
2022/12/04 05:55:38;;;;;;;0.10;0.10;;;;;;;8.75;60.44;96050.00;4947598;29;20287;-63
2022/12/04 05:58:05;;;;;;;0.70;0.70;;;;;;;8.65;60.20;96050.50;4940045;29;20211;-65
2022/12/04 06:00:32;;;;;;;0.03;0.03;;;;;;;8.77;60.05;96059.25;4953302;28;20214;-62
2022/12/04 06:02:59;;;;;;;0.15;0.15;;;;;;;8.83;60.22;96047.13;4935165;28;20292;-64
2022/12/04 06:05:26;;;;;;;0.30;0.30;;;;;;;8.81;59.69;96054.38;4943636;28;20215;-62
2022/12/04 06:07:53;;;;;;;2.92;1.85;;;;;;;8.37;60.93;96047.53;4952801;29;20207;-62
2022/12/04 06:10:20;;;;;;;0.00;0.00;;;;;;;8.57;60.65;96052.59;4952945;28;20203;-62
2022/12/04 06:12:47;;;;;;;0.80;0.80;;;;;;;8.59;60.01;96046.16;4939399;28;20296;-64
2022/12/04 06:15:13;;;;;;;0.45;0.20;;;;;;;8.43;60.67;96027.59;4952950;28;20278;-64
2022/12/04 06:17:40;;;;;;;0.00;0.00;;;;;;;8.83;59.78;96058.34;4939797;28;20286;-65
2022/12/04 06:20:08;;;;;;;0.10;0.10;;;;;;;8.66;60.20;96056.53;4938654;29;20195;-63
2022/12/04 06:22:37;;;;;;;0.10;0.10;;;;;;;9.05;59.74;96056.94;4952915;28;20231;-63
2022/12/04 06:25:05;;;;;;;0.07;0.07;;;;;;;8.93;59.37;96063.91;4932935;28;20228;-63
2022/12/04 06:27:32;;;;;;;0.38;0.38;;;;;;;8.98;59.70;96061.44;4932949;29;20964;-65
2022/12/04 06:29:59;;;;;;;0.70;0.50;;;;;;;9.02;59.74;96056.56;4932910;29;20307;-66
2022/12/04 06:32:26;;;;;;;0.00;0.00;;;;;;;8.99;59.66;96054.41;4933113;28;20448;-64
2022/12/04 06:34:54;;;;;;;0.08;0.08;;;;;;;9.03;59.79;96056.34;4944772;29;20207;-63
2022/12/04 06:37:23;;;;;;;0.00;0.00;;;;;;;8.97;59.40;96054.63;4948129;28;20212;-62
2022/12/04 06:39:50;;;;;;;2.55;0.52;;;;;;;8.86;60.05;96060.56;4933216;29;20203;-61
2022/12/04 06:42:17;;;;;;;0.98;0.88;;;;;;;8.85;59.65;96061.56;4949245;28;20207;-62
2022/12/04 06:44:44;;;;;;;0.08;0.08;;;;;;;8.94;60.45;96059.47;4952274;28;20251;-61
2022/12/04 06:47:11;;;;;;;0.10;0.10;;;;;;;9.01;60.61;96066.22;4938237;28;20260;-62
2022/12/04 06:49:38;;;;;;;0.40;0.40;;;;;;;9.35;59.61;96084.97;4952329;28;20196;-62
2022/12/04 06:52:05;;;;;;;0.70;0.70;;;;;;;9.31;59.51;96083.81;4939673;28;20207;-64
2022/12/04 06:54:31;;;;;;;0.00;0.00;;;;;;;9.31;59.28;96081.19;4933005;29;20561;-62
2022/12/04 06:56:58;;;;;;;0.47;0.20;;;;;;;9.41;58.91;96071.03;4933367;28;20232;-61
2022/12/04 06:59:26;;;;;;;0.05;0.05;;;;;;;9.13;59.67;96067.13;4949554;29;20283;-64
2022/12/04 07:01:53;;;;;;;1.45;0.43;;;;;;;9.15;59.63;96059.84;4948805;28;20195;-59
2022/12/04 07:04:20;;;;;;;0.40;0.40;;;;;;;9.09;59.54;96068.56;4937303;28;20219;-60
2022/12/04 07:06:47;;;;;;;0.00;0.00;;;;;;;9.10;59.90;96059.69;4950033;28;20223;-63
2022/12/04 07:09:17;;;;;;;0.00;0.00;;;;;;;9.44;59.03;96060.13;4936124;28;20252;-64
2022/12/04 07:11:44;;;;;;;0.10;0.10;;;;;;;9.50;59.23;96069.72;4939772;28;20232;-61
2022/12/04 07:14:12;;;;;;;0.15;0.15;;;;;;;9.47;60.25;96068.31;4936859;28;20747;-62
2022/12/04 07:16:40;;;;;;;0.13;0.13;;;;;;;9.85;59.72;96060.22;4938249;28;20204;-63
2022/12/04 07:19:12;;;;;;;0.08;0.08;;;;;;;9.81;59.02;96059.03;4951431;28;20238;-63
2022/12/04 07:21:40;;;;;;;0.30;0.30;;;;;;;10.12;58.20;96071.94;4945875;28;20200;-61
2022/12/04 07:24:12;;;;;;;0.57;0.57;;;;;;;10.03;58.47;96066.19;4944216;28;20203;-63
2022/12/04 07:26:39;;;;;;;0.30;0.30;;;;;;;10.36;58.24;96065.75;4946494;28;20247;-61
2022/12/04 07:29:06;;;;;;;0.40;0.40;;;;;;;10.42;57.56;96074.53;4943199;29;20502;-62
2022/12/04 07:31:33;;;;;;;0.93;0.93;;;;;;;10.44;57.40;96073.25;4940908;28;20444;-62
2022/12/04 07:34:00;;;;;;;2.87;0.60;;;;;;;10.46;56.98;96055.50;4939313;29;20443;-61
2022/12/04 07:36:26;;;;;;;0.70;0.70;;;;;;;10.44;57.81;96056.75;4951203;28;20545;-62
2022/12/04 07:38:55;;;;;;;0.20;0.20;;;;;;;10.30;57.11;96065.81;4938666;29;20456;-61
2022/12/04 07:41:22;;;;;;;0.67;0.63;;;;;;;10.41;57.05;96073.72;4948166;28;20452;-62
2022/12/04 07:43:49;;;;;;;0.23;0.23;;;;;;;10.59;56.27;96063.13;4951190;28;20923;-61
2022/12/04 07:46:22;;;;;;;0.20;0.20;;;;;;;10.35;56.93;96069.38;4937789;28;20490;-62
2022/12/04 07:48:50;;;;;;;0.27;0.27;;;;;;;10.41;56.87;96075.53;4951125;29;20515;-60
2022/12/04 07:51:22;;;;;;;0.33;0.33;;;;;;;10.27;56.42;96082.81;4946744;28;20437;-61
2022/12/04 07:53:51;;;;;;;0.00;0.00;;;;;;;10.17;56.97;96061.59;4938850;28;20952;-62
2022/12/04 07:56:19;;;;;;;0.20;0.20;;;;;;;9.91;57.69;96073.19;4934022;28;20441;-63
2022/12/04 07:58:46;;;;;;;0.10;0.10;;;;;;;9.98;57.40;96060.81;4940096;28;20448;-60
2022/12/04 08:01:16;;;;;;;1.80;0.57;;;;;;;10.05;57.40;96064.13;4946166;28;20527;-61
2022/12/04 08:03:45;;;;;;;0.10;0.10;;;;;;;10.04;57.69;96066.97;4951117;28;20955;-62
2022/12/04 08:06:17;;;;;;;0.17;0.17;;;;;;;10.11;57.11;96062.47;4937157;28;20494;-62
2022/12/04 08:08:45;;;;;;;0.50;0.50;;;;;;;10.31;56.98;96078.69;4951068;29;20877;-62
2022/12/04 08:11:15;;;;;;;0.37;0.37;;;;;;;10.28;56.47;96073.91;4934945;28;20503;-61
2022/12/04 08:13:43;;;;;;;0.93;0.87;;;;;;;10.22;56.57;96074.81;4930626;28;20519;-61
2022/12/04 08:16:12;;;;;;;0.43;0.43;;;;;;;10.51;55.58;96068.69;4930047;29;20460;-62
2022/12/04 08:18:40;;;;;;;0.10;0.10;;;;;;;10.47;55.70;96057.09;4930557;28;20452;-62
2022/12/04 08:21:12;;;;;;;0.63;0.63;;;;;;;10.59;55.99;96044.78;4929739;29;20448;-63
2022/12/04 08:23:41;;;;;;;0.10;0.10;;;;;;;10.44;55.44;96057.53;4932532;28;20440;-64
2022/12/04 08:26:10;;;;;;;0.00;0.00;;;;;;;10.43;56.11;96055.13;4929908;28;20571;-61
2022/12/04 08:28:38;;;;;;;0.00;0.00;;;;;;;10.41;56.38;96058.00;4931204;28;20456;-62
2022/12/04 08:31:11;;;;;;;0.00;0.00;;;;;;;10.58;56.00;96064.19;4933861;29;20539;-62
2022/12/04 08:33:39;;;;;;;0.00;0.00;;;;;;;10.66;55.13;96048.09;4933833;28;20451;-64
2022/12/04 08:36:10;;;;;;;0.00;0.00;;;;;;;10.84;54.70;96062.91;4933650;29;22022;-64
2022/12/04 08:38:38;;;;;;;0.33;0.33;;;;;;;10.81;54.44;96053.69;4934385;28;20491;-61
2022/12/04 08:41:07;;;;;;;0.00;0.00;;;;;;;11.11;53.56;96062.22;4946010;29;20454;-62
2022/12/04 08:43:34;;;;;;;2.73;0.50;;;;;;;11.27;53.76;96052.06;4935387;28;20455;-61
2022/12/04 08:46:03;;;;;;;0.00;0.00;;;;;;;11.77;52.33;96060.97;4932294;29;20484;-63
2022/12/04 08:48:32;;;;;;;0.23;0.23;;;;;;;11.91;51.84;96047.31;4934878;28;20538;-60
2022/12/04 08:51:00;;;;;;;0.00;0.00;;;;;;;11.90;51.74;96052.78;4935074;29;21046;-62
2022/12/04 08:53:27;;;;;;;0.10;0.10;;;;;;;11.78;51.91;96049.44;4934042;28;21046;-60
2022/12/04 08:55:54;;;;;;;0.10;0.10;;;;;;;11.54;52.34;96053.13;4932696;29;20501;-62
2022/12/04 08:58:21;;;;;;;1.23;1.23;;;;;;;11.21;53.53;96038.84;4934104;28;20452;-62
2022/12/04 09:00:48;;;;;;;4.53;3.53;;;;;;;11.45;52.97;96044.81;4933332;29;20502;-63
2022/12/04 09:03:18;;;;;;;0.10;0.10;;;;;;;11.32;53.02;96036.41;4934203;28;20559;-62
2022/12/04 09:05:45;;;;;;;0.17;0.17;;;;;;;11.27;53.10;96028.44;4936138;29;20471;-62
2022/12/04 09:08:14;;;;;;;0.00;0.00;;;;;;;11.00;52.90;96015.03;4940301;28;20445;-64
2022/12/04 09:10:41;;;;;;;0.60;0.60;;;;;;;11.17;53.00;96021.94;4933132;29;20980;-62
2022/12/04 09:13:08;;;;;;;2.37;2.23;;;;;;;10.87;54.43;96031.00;4932527;28;20459;-67
2022/12/04 09:15:39;;;;;;;0.20;0.20;;;;;;;10.94;53.90;96048.22;4941371;29;20440;-61
2022/12/04 09:18:07;;;;;;;0.00;0.00;;;;;;;10.76;54.48;96039.66;4934652;28;20527;-61
2022/12/04 09:20:34;;;;;;;0.50;0.50;;;;;;;10.73;55.29;96029.66;4932848;29;20448;-63
2022/12/04 09:23:03;;;;;;;0.10;0.10;;;;;;;10.87;55.61;96018.69;4937373;28;20546;-63
2022/12/04 09:25:36;;;;;;;1.93;0.87;;;;;;;10.95;55.13;96028.81;4930751;29;20484;-64
2022/12/04 09:28:03;;;;;;;0.23;0.23;;;;;;;10.79;55.05;96018.22;4933791;28;20532;-64
2022/12/04 09:30:30;;;;;;;0.40;0.40;;;;;;;10.65;54.84;96027.38;4932717;29;20452;-64
2022/12/04 09:32:57;;;;;;;0.00;0.00;;;;;;;10.55;54.67;96014.00;4932966;28;20990;-64
2022/12/04 09:35:24;;;;;;;0.10;0.10;;;;;;;10.49;54.76;96007.84;4932247;29;20524;-61
2022/12/04 09:37:51;;;;;;;0.30;0.30;;;;;;;10.41;55.28;96016.06;4932715;28;20820;-61
2022/12/04 09:40:27;;;;;;;0.00;0.00;;;;;;;10.54;55.53;96010.63;4932342;29;20560;-62
2022/12/04 09:43:19;;;;;;;0.40;0.40;;;;;;;10.59;56.59;96018.59;4937757;28;20449;-64
2022/12/04 09:45:51;;;;;;;3.00;2.73;;;;;;;10.57;55.78;96010.16;4932026;29;20890;-65
2022/12/04 09:48:21;;;;;;;1.03;1.03;;;;;;;10.70;55.67;96011.75;4935283;28;21147;-62
2022/12/04 09:50:49;;;;;;;1.50;0.87;;;;;;;10.50;56.04;96014.72;4931628;29;20959;-62
2022/12/04 09:53:21;;;;;;;0.13;0.13;;;;;;;10.53;55.91;96001.13;4932209;28;20452;-64
2022/12/04 09:56:03;;;;;;;0.63;0.63;;;;;;;10.61;55.86;96000.00;4931359;29;21007;-62
2022/12/04 09:58:48;;;;;;;0.10;0.10;;;;;;;10.26;56.51;95988.69;4932648;28;21018;-63
2022/12/04 10:01:25;;;;;;;0.00;0.00;;;;;;;10.20;56.33;95982.53;4932421;29;20543;-62
2022/12/04 10:03:54;;;;;;;0.23;0.23;;;;;;;10.12;56.90;95985.50;4933751;28;20523;-62
2022/12/04 10:06:36;;;;;;;1.60;1.40;;;;;;;9.99;56.72;95976.00;4931754;29;20484;-62
2022/12/04 10:09:49;;;;;;;0.53;0.53;;;;;;;10.27;56.56;95966.75;4933528;28;20456;-65
2022/12/04 10:12:31;;;;;;;0.27;0.20;;;;;;;10.47;56.11;95957.53;4946704;28;20554;-64
2022/12/04 10:15:24;;;;;;;0.60;0.60;;;;;;;10.50;55.80;95961.50;4932344;28;20447;-63
2022/12/04 10:18:00;;;;;;;0.23;0.23;;;;;;;10.46;55.61;95955.91;4932899;28;20545;-63
2022/12/04 10:20:56;;;;;;;1.17;0.60;;;;;;;10.55;55.56;95959.78;4932014;29;20456;-65
2022/12/04 10:23:31;;;;;;;0.83;0.83;;;;;;;10.48;55.83;95953.06;4932488;28;20448;-66
2022/12/04 10:26:01;;;;;;;0.00;0.00;;;;;;;10.52;55.91;95947.16;4932222;29;20521;-64
2022/12/04 10:28:38;;;;;;;0.87;0.87;;;;;;;10.57;55.84;95942.00;4932293;28;20988;-66
2022/12/04 10:31:11;;;;;;;1.27;0.60;;;;;;;10.34;56.65;95942.03;4932043;28;20448;-66
2022/12/04 10:33:55;;;;;;;0.20;0.20;;;;;;;10.22;55.99;95951.69;4931871;28;20875;-62
2022/12/04 10:36:28;;;;;;;0.40;0.40;;;;;;;10.07;55.75;95951.31;4931543;28;20444;-61
2022/12/04 10:39:04;;;;;;;0.20;0.20;;;;;;;10.20;55.74;95944.06;4936646;28;20471;-62
2022/12/04 10:42:07;;;;;;;0.00;0.00;;;;;;;10.27;55.99;95930.88;4931900;29;20444;-63
2022/12/04 10:44:35;;;;;;;0.00;0.00;;;;;;;10.45;55.23;95922.88;4936792;28;20452;-63
2022/12/04 10:47:04;;;;;;;0.00;0.00;;;;;;;10.62;54.79;95917.75;4931123;29;20566;-63
2022/12/04 10:49:34;;;;;;;0.00;0.00;;;;;;;10.64;55.12;95924.34;4933497;28;21015;-61
2022/12/04 10:52:01;;;;;;;0.40;0.40;;;;;;;10.33;55.52;95929.94;4942885;28;20550;-64
2022/12/04 10:54:39;;;;;;;0.97;0.50;;;;;;;10.32;55.69;95927.56;4932405;28;20947;-65
2022/12/04 10:57:41;;;;;;;0.70;0.70;;;;;;;10.17;56.04;95941.09;4929999;28;20436;-62
2022/12/04 11:00:24;;;;;;;0.23;0.23;;;;;;;10.31;55.99;95926.75;4930400;28;20479;-61
2022/12/04 11:02:53;;;;;;;0.40;0.40;;;;;;;10.20;55.81;95901.34;4930909;28;20436;-63
2022/12/04 11:05:33;;;;;;;1.97;0.43;;;;;;;10.49;55.80;95947.59;4930204;29;20449;-66
2022/12/04 11:08:03;;;;;;;0.40;0.40;;;;;;;10.72;55.22;95933.66;4931127;28;20444;-65
2022/12/04 11:10:40;;;;;;;0.50;0.50;;;;;;;10.72;54.91;95924.00;4930106;29;20484;-64
2022/12/04 11:13:15;;;;;;;0.00;0.00;;;;;;;10.72;54.59;95924.00;4931153;28;20480;-62
2022/12/04 11:15:48;;;;;;;0.00;0.00;;;;;;;10.83;54.20;95915.31;4929824;29;20507;-62
2022/12/04 11:18:22;;;;;;;0.00;0.00;;;;;;;11.03;53.93;95910.47;4930210;28;20444;-64
2022/12/04 11:21:01;;;;;;;0.00;0.00;;;;;;;10.81;53.22;95912.13;4930043;29;20496;-63
2022/12/04 11:23:45;;;;;;;0.23;0.23;;;;;;;10.71;54.00;95911.88;4929890;28;21150;-69
2022/12/04 11:26:14;;;;;;;0.40;0.40;;;;;;;10.95;53.40;95918.69;4929827;29;20539;-63
2022/12/04 11:28:50;;;;;;;0.00;0.00;;;;;;;10.72;53.13;95912.69;4931560;28;20451;-62
2022/12/04 11:31:20;;;;;;;0.10;0.10;;;;;;;10.82;53.40;95929.44;4929635;29;20444;-64
2022/12/04 11:33:52;;;;;;;0.00;0.00;;;;;;;11.06;52.74;95932.78;4930376;28;20500;-63
2022/12/04 11:36:32;;;;;;;0.93;0.93;;;;;;;10.94;53.29;95932.84;4930130;29;20523;-64
2022/12/04 11:39:25;;;;;;;0.00;0.00;;;;;;;11.04;52.92;95926.97;4931913;28;20455;-62
2022/12/04 11:42:03;;;;;;;0.33;0.33;;;;;;;11.07;53.31;95921.28;4941498;28;20479;-64
2022/12/04 11:44:35;;;;;;;0.30;0.30;;;;;;;11.07;52.96;95905.53;4931393;28;20450;-63
2022/12/04 11:47:03;;;;;;;0.00;0.00;;;;;;;10.79;53.08;95922.03;4929549;29;20532;-64
2022/12/04 11:49:32;;;;;;;0.10;0.10;;;;;;;10.76;53.96;95925.13;4946824;28;20446;-64
2022/12/04 11:52:15;;;;;;;0.20;0.20;;;;;;;10.58;53.42;95927.09;4940099;29;20448;-63
2022/12/04 11:54:59;;;;;;;0.13;0.13;;;;;;;10.67;53.71;95936.19;4941314;28;20944;-65
2022/12/04 11:57:43;;;;;;;1.40;1.07;;;;;;;10.81;53.52;95937.53;4946101;29;20534;-62
2022/12/04 12:00:17;;;;;;;0.20;0.20;;;;;;;10.82;53.27;95933.91;4940052;28;20451;-65
2022/12/04 12:03:01;;;;;;;1.10;0.53;;;;;;;10.52;54.33;95928.81;4950855;28;20470;-62
2022/12/04 12:06:05;;;;;;;0.17;0.17;;;;;;;11.09;53.37;95940.97;4944031;28;20452;-61
2022/12/04 12:08:57;;;;;;;0.20;0.20;;;;;;;11.10;52.94;95932.09;4949351;28;20448;-62
2022/12/04 12:11:57;;;;;;;0.33;0.33;;;;;;;10.90;53.26;95923.84;4934765;29;20447;-63
2022/12/04 12:14:39;;;;;;;0.53;0.33;;;;;;;10.59;53.82;95939.97;4936135;28;20507;-61
2022/12/04 12:17:12;;;;;;;0.00;0.00;;;;;;;11.02;52.87;95940.31;4934604;29;20464;-61